createdAt,value
2023-08-08T00:01:51.162Z,15.60
2023-08-08T00:04:19.136Z,15.61
2023-08-08T00:06:47.108Z,15.78
2023-08-08T00:09:15.834Z,15.51
2023-08-08T00:11:44.124Z,15.39
2023-08-08T00:14:11.916Z,15.61
2023-08-08T00:16:39.970Z,15.39
2023-08-08T00:19:09.307Z,15.31
2023-08-08T00:21:37.310Z,15.40
2023-08-08T00:24:05.609Z,15.60
2023-08-08T00:26:33.615Z,15.43
2023-08-08T00:29:01.692Z,15.63
2023-08-08T00:31:29.741Z,15.60
2023-08-08T00:33:57.673Z,15.43
2023-08-08T00:36:26.994Z,15.52
2023-08-08T00:38:55.024Z,15.63
2023-08-08T00:41:23.445Z,15.65
2023-08-08T00:43:51.559Z,15.61
2023-08-08T00:46:25.166Z,15.71
2023-08-08T00:48:54.099Z,15.56
2023-08-08T00:51:23.649Z,15.64
2023-08-08T00:53:54.388Z,15.74
2023-08-08T00:56:22.776Z,15.58
2023-08-08T00:58:51.763Z,15.54
2023-08-08T01:01:20.408Z,15.40
2023-08-08T01:03:48.888Z,15.68
2023-08-08T01:06:30.367Z,15.79
2023-08-08T01:09:05.759Z,15.79
2023-08-08T01:11:38.845Z,15.79
2023-08-08T01:14:11.811Z,15.68
2023-08-08T01:16:40.227Z,15.44
2023-08-08T01:19:11.649Z,15.54
2023-08-08T01:21:42.175Z,15.58
2023-08-08T01:24:21.729Z,15.70
2023-08-08T01:26:50.594Z,15.62
2023-08-08T01:29:18.732Z,15.51
2023-08-08T01:31:46.731Z,15.62
2023-08-08T01:34:15.208Z,15.63
2023-08-08T01:36:52.046Z,15.65
2023-08-08T01:39:28.616Z,15.64
2023-08-08T01:41:58.369Z,15.71
2023-08-08T01:44:27.442Z,15.65
2023-08-08T01:46:56.489Z,15.58
2023-08-08T01:49:24.320Z,15.52
2023-08-08T01:51:53.371Z,15.80
2023-08-08T01:54:22.771Z,15.81
2023-08-08T01:56:50.603Z,15.74
2023-08-08T01:59:18.490Z,15.52
2023-08-08T02:01:46.451Z,15.47
2023-08-08T02:04:14.556Z,15.87
2023-08-08T02:06:42.630Z,15.65
2023-08-08T02:09:10.609Z,15.95
2023-08-08T02:11:40.428Z,15.65
2023-08-08T02:14:08.608Z,15.74
2023-08-08T02:16:36.558Z,15.66
2023-08-08T02:19:04.568Z,15.48
2023-08-08T02:21:32.399Z,15.74
2023-08-08T02:24:00.275Z,15.69
2023-08-08T02:26:28.166Z,15.81
2023-08-08T02:28:57.404Z,15.63
2023-08-08T02:31:25.405Z,15.91
2023-08-08T02:33:53.818Z,15.80
2023-08-08T02:36:22.110Z,15.59
2023-08-08T02:38:50.835Z,15.96
2023-08-08T02:41:18.802Z,15.72
2023-08-08T02:43:47.323Z,15.92
2023-08-08T02:46:16.761Z,15.70
2023-08-08T02:48:44.946Z,15.81
2023-08-08T02:51:13.375Z,15.84
2023-08-08T02:53:41.320Z,15.83
2023-08-08T02:56:09.222Z,15.57
2023-08-08T02:58:37.168Z,15.49
2023-08-08T03:01:05.224Z,15.77
2023-08-08T03:03:34.581Z,15.72
2023-08-08T03:06:03.915Z,15.47
2023-08-08T03:08:31.983Z,15.84
2023-08-08T03:10:59.830Z,15.45
2023-08-08T03:13:27.908Z,15.71
2023-08-08T03:15:57.904Z,15.52
2023-08-08T03:18:26.992Z,15.78
2023-08-08T03:20:56.389Z,15.68
2023-08-08T03:23:25.381Z,15.63
2023-08-08T03:25:53.487Z,15.67
2023-08-08T03:28:21.560Z,15.60
2023-08-08T03:30:49.523Z,15.55
2023-08-08T03:33:17.517Z,15.65
2023-08-08T03:35:45.759Z,15.79
2023-08-08T03:38:15.088Z,15.83
2023-08-08T03:40:43.081Z,15.55
2023-08-08T03:43:10.987Z,15.61
2023-08-08T03:45:38.903Z,15.83
2023-08-08T03:48:07.780Z,15.62
2023-08-08T03:50:35.795Z,15.57
2023-08-08T03:53:03.887Z,15.40
2023-08-08T03:55:34.689Z,15.48
2023-08-08T03:58:02.707Z,15.60
2023-08-08T04:00:30.763Z,15.34
2023-08-08T04:02:58.766Z,15.48
2023-08-08T04:05:26.815Z,15.36
2023-08-08T04:07:54.772Z,15.46
2023-08-08T04:10:22.760Z,15.42
2023-08-08T04:12:52.092Z,15.73
2023-08-08T04:15:20.505Z,15.57
2023-08-08T04:17:48.474Z,15.59
2023-08-08T04:20:16.955Z,15.72
2023-08-08T04:22:45.198Z,15.74
2023-08-08T04:25:13.264Z,15.58
2023-08-08T04:27:41.439Z,15.55
2023-08-08T04:30:12.131Z,15.73
2023-08-08T04:32:40.187Z,15.78
2023-08-08T04:35:08.742Z,15.98
2023-08-08T04:37:36.771Z,15.78
2023-08-08T04:40:05.714Z,15.53
2023-08-08T04:42:34.260Z,15.90
2023-08-08T04:45:02.274Z,16.09
2023-08-08T04:47:31.586Z,16.01
2023-08-08T04:49:59.733Z,16.30
2023-08-08T04:52:28.091Z,16.39
2023-08-08T04:54:56.299Z,15.98
2023-08-08T04:57:24.388Z,15.87
2023-08-08T04:59:52.436Z,16.22
2023-08-08T05:02:20.396Z,16.05
2023-08-08T05:04:51.033Z,16.33
2023-08-08T05:07:18.919Z,16.01
2023-08-08T05:09:47.069Z,16.32
2023-08-08T05:12:14.940Z,16.58
2023-08-08T05:14:42.840Z,16.49
2023-08-08T05:17:10.990Z,16.43
2023-08-08T05:19:38.889Z,16.09
2023-08-08T05:22:08.329Z,16.48
2023-08-08T05:24:36.722Z,16.60
2023-08-08T05:27:05.397Z,16.27
2023-08-08T05:29:33.360Z,16.44
2023-08-08T05:32:01.666Z,16.24
2023-08-08T05:34:29.740Z,16.58
2023-08-08T05:39:29.772Z,16.44
2023-08-08T05:41:57.791Z,16.86
2023-08-08T05:44:25.806Z,17.10
2023-08-08T05:46:54.307Z,17.30
2023-08-08T05:49:22.525Z,17.75
2023-08-08T05:51:52.732Z,17.82
2023-08-08T05:54:21.331Z,18.35
2023-08-08T05:56:50.671Z,18.03
2023-08-08T05:59:18.993Z,18.70
2023-08-08T06:01:47.296Z,18.59
2023-08-08T06:04:15.985Z,19.26
2023-08-08T06:06:43.884Z,19.08
2023-08-08T06:09:13.183Z,19.54
2023-08-08T06:11:41.306Z,19.86
2023-08-08T06:14:10.763Z,19.78
2023-08-08T06:16:38.766Z,19.68
2023-08-08T06:19:07.109Z,20.06
2023-08-08T06:21:35.107Z,20.37
2023-08-08T06:24:03.175Z,20.23
2023-08-08T06:26:31.106Z,20.86
2023-08-08T06:28:59.437Z,20.79
2023-08-08T06:31:28.826Z,20.30
2023-08-08T06:33:56.641Z,20.48
2023-08-08T06:36:24.518Z,20.97
2023-08-08T06:38:52.418Z,20.36
2023-08-08T06:41:20.363Z,20.52
2023-08-08T06:43:48.310Z,20.95
2023-08-08T06:46:16.248Z,20.86
2023-08-08T06:48:46.900Z,20.86
2023-08-08T06:51:15.144Z,21.13
2023-08-08T06:53:43.100Z,21.53
2023-08-08T06:56:11.047Z,20.85
2023-08-08T06:58:39.066Z,21.01
2023-08-08T07:01:07.000Z,21.28
2023-08-08T07:03:34.950Z,21.35
2023-08-08T07:06:11.870Z,21.66
2023-08-08T07:08:40.424Z,20.90
2023-08-08T07:11:09.120Z,21.64
2023-08-08T07:13:37.654Z,21.06
2023-08-08T07:16:06.478Z,21.86
2023-08-08T07:18:34.616Z,22.04
2023-08-08T07:21:02.553Z,22.09
2023-08-08T07:23:31.816Z,22.33
2023-08-08T07:25:59.683Z,20.72
2023-08-08T07:28:38.882Z,21.13
2023-08-08T07:31:07.070Z,21.96
2023-08-08T07:33:35.261Z,21.54
2023-08-08T07:36:03.493Z,21.64
2023-08-08T07:38:34.564Z,21.93
2023-08-08T07:41:02.886Z,21.19
2023-08-08T07:43:31.266Z,20.99
2023-08-08T07:45:59.249Z,21.51
2023-08-08T07:48:27.170Z,21.31
2023-08-08T07:50:55.109Z,21.79
2023-08-08T07:53:23.070Z,22.74
2023-08-08T07:55:52.399Z,22.28
2023-08-08T07:58:20.497Z,23.23
2023-08-08T08:00:48.602Z,22.86
2023-08-08T08:03:17.042Z,23.34
2023-08-08T08:05:45.006Z,22.81
2023-08-08T08:08:13.406Z,22.97
2023-08-08T08:10:41.375Z,23.50
2023-08-08T08:13:11.761Z,22.85
2023-08-08T08:15:39.774Z,23.77
2023-08-08T08:18:07.843Z,23.56
2023-08-08T08:20:35.907Z,24.05
2023-08-08T08:23:03.726Z,23.61
2023-08-08T08:25:33.104Z,23.18
2023-08-08T08:28:01.004Z,23.45
2023-08-08T08:30:30.239Z,23.14
2023-08-08T08:32:58.897Z,23.48
2023-08-08T08:35:26.903Z,23.42
2023-08-08T08:37:55.182Z,23.66
2023-08-08T08:40:23.505Z,23.16
2023-08-08T08:42:52.912Z,22.86
2023-08-08T08:45:22.423Z,22.20
2023-08-08T08:47:54.073Z,21.56
2023-08-08T08:50:22.566Z,21.43
2023-08-08T08:52:52.331Z,21.20
2023-08-08T08:55:20.751Z,21.07
2023-08-08T08:57:49.062Z,21.68
2023-08-08T09:00:20.253Z,21.38
2023-08-08T09:02:48.793Z,21.61
2023-08-08T09:05:23.727Z,21.19
2023-08-08T09:07:52.605Z,20.74
2023-08-08T09:10:22.519Z,20.97
2023-08-08T09:12:51.320Z,21.19
2023-08-08T09:15:19.434Z,20.89
2023-08-08T09:17:49.736Z,20.80
2023-08-08T09:20:19.573Z,20.90
2023-08-08T09:22:47.303Z,21.16
2023-08-08T09:25:15.297Z,21.82
2023-08-08T09:27:43.989Z,22.75
2023-08-08T09:30:13.651Z,22.66
2023-08-08T09:32:41.537Z,22.10
2023-08-08T09:35:11.617Z,22.33
2023-08-08T09:37:41.156Z,22.91
2023-08-08T09:40:12.956Z,22.49
2023-08-08T09:42:43.579Z,23.61
2023-08-08T09:45:12.775Z,22.42
2023-08-08T09:47:41.041Z,22.19
2023-08-08T09:50:10.469Z,21.06
2023-08-08T09:52:40.911Z,19.70
2023-08-08T09:55:09.764Z,18.45
2023-08-08T09:57:40.474Z,18.36
2023-08-08T10:00:16.916Z,17.93
2023-08-08T10:02:47.097Z,18.51
2023-08-08T10:05:17.177Z,18.98
2023-08-08T10:07:47.577Z,19.60
2023-08-08T10:10:16.189Z,20.83
2023-08-08T10:12:44.914Z,20.59
2023-08-08T10:15:13.433Z,21.34
2023-08-08T10:17:42.867Z,22.25
2023-08-08T10:20:12.927Z,22.13
2023-08-08T10:22:48.205Z,21.10
2023-08-08T10:25:28.179Z,21.81
2023-08-08T10:28:20.091Z,21.88
2023-08-08T10:30:56.603Z,21.82
2023-08-08T10:33:26.685Z,21.45
2023-08-08T10:36:03.491Z,20.70
2023-08-08T10:38:44.637Z,21.52
2023-08-08T10:41:14.788Z,22.10
2023-08-08T10:44:00.339Z,21.78
2023-08-08T10:46:31.215Z,20.78
2023-08-08T10:49:02.987Z,20.01
2023-08-08T10:51:50.612Z,19.64
2023-08-08T10:54:24.424Z,18.94
2023-08-08T10:57:30.520Z,19.63
2023-08-08T11:00:19.507Z,19.73
2023-08-08T11:02:47.380Z,19.98
2023-08-08T11:05:17.452Z,19.87
2023-08-08T11:07:45.798Z,19.45
2023-08-08T11:10:15.242Z,19.63
2023-08-08T11:12:43.248Z,19.14
2023-08-08T11:15:11.991Z,19.62
2023-08-08T11:17:40.043Z,19.34
2023-08-08T11:20:09.533Z,19.61
2023-08-08T11:22:37.457Z,20.00
2023-08-08T11:25:08.030Z,20.04
2023-08-08T11:30:11.332Z,20.43
2023-08-08T11:32:39.460Z,21.16
2023-08-08T11:35:08.549Z,22.27
2023-08-08T11:37:37.667Z,23.18
2023-08-08T11:40:09.785Z,24.20
2023-08-08T11:42:40.406Z,22.92
2023-08-08T11:45:10.943Z,23.56
2023-08-08T11:47:40.886Z,24.08
2023-08-08T11:50:13.076Z,23.80
2023-08-08T11:52:45.065Z,24.04
2023-08-08T11:55:13.329Z,24.37
2023-08-08T11:57:42.938Z,24.36
2023-08-08T12:00:14.001Z,22.88
2023-08-08T12:02:43.066Z,22.68
2023-08-08T12:05:13.732Z,22.21
2023-08-08T12:07:43.156Z,21.07
2023-08-08T12:10:19.860Z,22.06
2023-08-08T12:12:55.606Z,21.23
2023-08-08T12:15:23.995Z,20.90
2023-08-08T12:17:53.515Z,20.63
2023-08-08T12:20:21.347Z,21.04
2023-08-08T12:22:50.417Z,22.05
2023-08-08T12:25:18.440Z,23.00
2023-08-08T12:27:48.718Z,23.23
2023-08-08T12:30:19.135Z,23.67
2023-08-08T12:32:47.003Z,23.68
2023-08-08T12:35:17.245Z,23.35
2023-08-08T12:37:45.402Z,23.00
2023-08-08T12:40:14.313Z,22.95
2023-08-08T12:42:42.780Z,23.79
2023-08-08T12:45:11.806Z,23.98
2023-08-08T12:47:41.767Z,23.89
2023-08-08T12:50:10.154Z,23.09
2023-08-08T12:52:39.221Z,22.36
2023-08-08T12:55:10.134Z,23.58
2023-08-08T12:57:38.563Z,23.60
2023-08-08T13:00:10.108Z,23.85
2023-08-08T13:02:39.588Z,23.79
2023-08-08T13:05:37.959Z,22.83
2023-08-08T13:08:06.844Z,22.61
2023-08-08T13:11:03.356Z,23.17
2023-08-08T13:13:31.402Z,23.23
2023-08-08T13:15:59.656Z,23.32
2023-08-08T13:18:28.067Z,23.22
2023-08-08T13:20:57.378Z,23.40
2023-08-08T13:23:26.381Z,23.76
2023-08-08T13:25:54.294Z,23.57
2023-08-08T13:28:22.738Z,23.23
2023-08-08T13:30:50.614Z,23.59
2023-08-08T13:33:18.654Z,23.63
2023-08-08T13:35:46.581Z,23.28
2023-08-08T13:38:17.073Z,22.85
2023-08-08T13:40:45.407Z,21.55
2023-08-08T13:43:13.328Z,21.42
2023-08-08T13:45:41.398Z,21.24
2023-08-08T13:48:09.428Z,21.98
2023-08-08T13:50:37.219Z,21.95
2023-08-08T13:53:05.767Z,21.19
2023-08-08T13:55:40.149Z,21.98
2023-08-08T13:58:08.615Z,21.96
2023-08-08T14:00:36.979Z,22.05
2023-08-08T14:03:05.985Z,22.19
2023-08-08T14:05:33.941Z,21.75
2023-08-08T14:08:01.849Z,21.07
2023-08-08T14:10:29.764Z,21.44
2023-08-08T14:12:59.052Z,21.28
2023-08-08T14:15:27.025Z,21.79
2023-08-08T14:17:54.933Z,21.55
2023-08-08T14:20:23.315Z,21.59
2023-08-08T14:22:51.341Z,21.81
2023-08-08T14:25:19.209Z,21.07
2023-08-08T14:27:47.059Z,21.10
2023-08-08T14:30:16.639Z,21.42
2023-08-08T14:32:44.462Z,21.52
2023-08-08T14:35:13.750Z,20.45
2023-08-08T14:37:42.275Z,20.77
2023-08-08T14:40:11.936Z,20.23
2023-08-08T14:42:40.255Z,20.18
2023-08-08T14:45:09.638Z,20.56
2023-08-08T14:47:39.013Z,21.29
2023-08-08T14:50:18.258Z,21.29
2023-08-08T14:52:46.416Z,21.30
2023-08-08T14:55:14.482Z,20.98
2023-08-08T14:57:47.584Z,20.56
2023-08-08T15:00:23.348Z,20.69
2023-08-08T15:02:52.912Z,20.96
2023-08-08T15:05:39.043Z,20.96
2023-08-08T15:08:07.314Z,20.19
2023-08-08T15:10:36.103Z,20.17
2023-08-08T15:13:04.275Z,20.69
2023-08-08T15:16:31.261Z,20.70
2023-08-08T15:19:00.748Z,20.77
2023-08-08T15:21:40.481Z,20.62
2023-08-08T15:24:10.875Z,20.45
2023-08-08T15:26:39.303Z,20.60
2023-08-08T15:29:08.091Z,20.34
2023-08-08T15:31:36.109Z,20.85
2023-08-08T15:34:06.219Z,20.78
2023-08-08T15:36:38.430Z,20.94
2023-08-08T15:39:06.914Z,20.88
2023-08-08T15:42:26.042Z,20.34
2023-08-08T15:45:04.702Z,20.84
2023-08-08T15:47:32.670Z,20.22
2023-08-08T15:50:02.317Z,20.37
2023-08-08T15:52:30.143Z,20.81
2023-08-08T15:54:58.093Z,19.93
2023-08-08T15:57:33.704Z,20.59
2023-08-08T16:00:01.678Z,20.58
2023-08-08T16:03:24.907Z,20.83
2023-08-08T16:05:54.310Z,20.75
2023-08-08T16:08:27.434Z,20.23
2023-08-08T16:10:55.426Z,20.76
2023-08-08T16:14:07.093Z,20.20
2023-08-08T16:16:35.147Z,20.55
2023-08-08T16:19:03.173Z,20.70
2023-08-08T16:21:32.500Z,20.48
2023-08-08T16:24:00.566Z,20.44
2023-08-08T16:30:43.974Z,20.19
2023-08-08T16:33:16.859Z,20.38
2023-08-08T16:35:45.458Z,19.90
2023-08-08T16:38:15.242Z,20.70
2023-08-08T16:40:43.346Z,20.47
2023-08-08T16:43:12.127Z,20.52
2023-08-08T16:45:40.228Z,19.86
2023-08-08T16:48:08.790Z,20.06
2023-08-08T16:50:37.027Z,19.67
2023-08-08T16:53:05.417Z,19.67
2023-08-08T16:55:34.764Z,20.05
2023-08-08T16:58:04.460Z,19.81
2023-08-08T17:00:32.231Z,19.97
2023-08-08T17:03:00.219Z,19.65
2023-08-08T17:05:28.619Z,19.96
2023-08-08T17:07:56.735Z,19.65
2023-08-08T17:10:26.470Z,19.51
2023-08-08T17:12:55.528Z,19.81
2023-08-08T17:15:24.239Z,19.13
2023-08-08T17:17:52.199Z,19.89
2023-08-08T17:20:20.340Z,19.63
2023-08-08T17:22:48.284Z,19.44
2023-08-08T17:25:16.338Z,19.79
2023-08-08T17:28:40.676Z,19.86
2023-08-08T17:31:09.873Z,19.14
2023-08-08T17:33:38.006Z,18.34
2023-08-08T17:36:06.752Z,18.54
2023-08-08T17:38:35.501Z,17.45
2023-08-08T17:41:03.483Z,17.21
2023-08-08T17:43:31.459Z,17.30
2023-08-08T17:46:00.879Z,17.16
2023-08-08T17:48:28.746Z,17.25
2023-08-08T17:50:57.004Z,17.05
2023-08-08T17:53:25.269Z,17.15
2023-08-08T17:55:53.440Z,17.20
2023-08-08T17:58:21.307Z,17.15
2023-08-08T18:00:49.267Z,17.26
2023-08-08T18:03:18.606Z,17.80
2023-08-08T18:05:46.524Z,17.11
2023-08-08T18:08:15.226Z,17.29
2023-08-08T18:10:43.612Z,17.33
2023-08-08T18:13:11.554Z,17.25
2023-08-08T18:15:39.434Z,16.82
2023-08-08T18:18:07.890Z,17.31
2023-08-08T18:20:37.256Z,17.46
2023-08-08T18:23:05.588Z,17.61
2023-08-08T18:25:33.966Z,17.41
2023-08-08T18:28:02.092Z,17.17
2023-08-08T18:30:30.088Z,17.06
2023-08-08T18:32:58.261Z,17.17
2023-08-08T18:35:26.291Z,17.49
2023-08-08T18:37:55.846Z,17.57
2023-08-08T18:40:24.035Z,17.97
2023-08-08T18:42:52.032Z,17.19
2023-08-08T18:45:20.006Z,16.87
2023-08-08T18:47:47.975Z,17.77
2023-08-08T18:50:17.196Z,17.62
2023-08-08T18:52:46.533Z,17.08
2023-08-08T18:55:15.851Z,17.60
2023-08-08T18:57:43.783Z,17.78
2023-08-08T19:00:13.698Z,17.64
2023-08-08T19:02:41.821Z,17.77
2023-08-08T19:05:13.267Z,17.66
2023-08-08T19:07:41.203Z,17.96
2023-08-08T19:10:10.521Z,17.70
2023-08-08T19:12:39.827Z,17.08
2023-08-08T19:15:10.141Z,17.11
2023-08-08T19:17:53.532Z,16.74
2023-08-08T19:20:23.886Z,16.38
2023-08-08T19:23:25.258Z,16.83
2023-08-08T19:25:53.240Z,17.09
2023-08-08T19:28:22.521Z,17.46
2023-08-08T19:30:50.528Z,16.94
2023-08-08T19:33:18.503Z,16.78
2023-08-08T19:35:57.618Z,17.05
2023-08-08T19:38:26.429Z,17.38
2023-08-08T19:40:55.076Z,16.69
2023-08-08T19:43:38.698Z,16.50
2023-08-08T19:46:09.403Z,16.88
2023-08-08T19:48:38.209Z,17.68
2023-08-08T19:51:06.137Z,17.46
2023-08-08T19:53:34.015Z,17.11
2023-08-08T19:56:02.130Z,17.48
2023-08-08T19:58:38.884Z,16.83
2023-08-08T20:01:07.017Z,16.91
2023-08-08T20:03:35.269Z,17.09
2023-08-08T20:06:03.277Z,16.89
2023-08-08T20:08:31.172Z,17.09
2023-08-08T20:10:59.180Z,16.86
2023-08-08T20:13:27.876Z,16.88
2023-08-08T20:15:57.456Z,17.01
2023-08-08T20:18:25.644Z,17.00
2023-08-08T20:20:54.847Z,16.53
2023-08-08T20:23:22.815Z,17.05
2023-08-08T20:25:50.852Z,16.61
2023-08-08T20:28:18.866Z,17.05
2023-08-08T20:30:46.884Z,17.22
2023-08-08T20:33:16.282Z,16.89
2023-08-08T20:35:46.710Z,16.83
2023-08-08T20:38:14.883Z,16.81
2023-08-08T20:40:42.919Z,16.89
2023-08-08T20:43:10.874Z,16.71
2023-08-08T20:45:39.005Z,16.65
2023-08-08T20:48:07.097Z,16.02
2023-08-08T20:50:36.772Z,16.61
2023-08-08T20:53:05.250Z,15.93
2023-08-08T20:55:33.547Z,15.95
2023-08-08T20:58:02.631Z,15.82
2023-08-08T21:00:30.895Z,16.01
2023-08-08T21:02:58.895Z,15.86
2023-08-08T21:05:27.295Z,15.75
2023-08-08T21:08:09.096Z,15.99
2023-08-08T21:10:37.080Z,16.04
2023-08-08T21:13:05.445Z,15.96
2023-08-08T21:15:33.477Z,15.97
2023-08-08T21:18:01.471Z,16.01
2023-08-08T21:20:29.412Z,15.80
2023-08-08T21:23:01.262Z,15.59
2023-08-08T21:25:30.579Z,15.83
2023-08-08T21:28:01.839Z,15.82
2023-08-08T21:30:29.832Z,15.92
2023-08-08T21:32:57.852Z,15.89
2023-08-08T21:35:26.022Z,16.02
2023-08-08T21:37:54.004Z,15.93
2023-08-08T21:40:22.002Z,15.95
2023-08-08T21:42:51.220Z,15.90
2023-08-08T21:45:19.106Z,15.97
2023-08-08T21:47:47.062Z,15.86
2023-08-08T21:50:15.068Z,15.79
2023-08-08T21:52:42.942Z,15.66
2023-08-08T21:55:11.095Z,15.90
2023-08-08T21:57:39.929Z,16.09
2023-08-08T22:00:14.384Z,15.82
2023-08-08T22:02:43.875Z,15.61
2023-08-08T22:05:12.173Z,15.72
2023-08-08T22:07:40.241Z,15.84
2023-08-08T22:10:09.369Z,15.34
2023-08-08T22:12:37.584Z,15.68
2023-08-08T22:15:06.789Z,15.94
2023-08-08T22:17:36.075Z,15.60
2023-08-08T22:20:04.797Z,15.78
2023-08-08T22:22:33.464Z,15.65
2023-08-08T22:25:01.739Z,15.48
2023-08-08T22:27:29.872Z,15.71
2023-08-08T22:29:57.839Z,15.50
2023-08-08T22:32:25.935Z,15.63
2023-08-08T22:34:56.040Z,15.65
2023-08-08T22:37:24.075Z,15.66
2023-08-08T22:39:52.099Z,15.66
2023-08-08T22:42:20.488Z,15.51
2023-08-08T22:44:48.589Z,15.53
2023-08-08T22:47:16.438Z,15.44
2023-08-08T22:49:44.526Z,15.77
2023-08-08T22:52:13.873Z,15.59
2023-08-08T22:54:41.779Z,15.64
2023-08-08T22:57:10.270Z,15.51
2023-08-08T22:59:38.293Z,15.61
2023-08-08T23:02:06.252Z,15.32
2023-08-08T23:04:34.212Z,15.61
2023-08-08T23:07:02.486Z,15.68
2023-08-08T23:09:32.561Z,15.36
2023-08-08T23:12:00.732Z,15.51
2023-08-08T23:14:29.048Z,15.22
2023-08-08T23:16:57.025Z,15.23
2023-08-08T23:19:26.257Z,15.17
2023-08-08T23:21:54.155Z,15.19
2023-08-08T23:24:22.146Z,15.14
2023-08-08T23:26:51.596Z,15.19
2023-08-08T23:29:19.532Z,15.42
2023-08-08T23:31:47.596Z,15.38
2023-08-08T23:34:14.515Z,14.79
2023-08-08T23:36:42.961Z,14.94
2023-08-08T23:39:11.330Z,15.22
2023-08-08T23:41:39.360Z,15.26
2023-08-08T23:44:09.121Z,15.22
2023-08-08T23:46:37.149Z,14.81
2023-08-08T23:49:08.525Z,15.35
2023-08-08T23:51:38.003Z,15.21
2023-08-08T23:54:06.906Z,15.52
2023-08-08T23:56:34.783Z,15.37
2023-08-08T23:59:02.667Z,15.10
